createdAt,value
2023-04-11T00:00:42.490Z,43.80
2023-04-11T00:05:45.525Z,43.82
2023-04-11T00:10:49.656Z,43.90
2023-04-11T00:15:55.362Z,44.23
2023-04-11T00:20:58.136Z,44.09
2023-04-11T00:26:02.387Z,43.96
2023-04-11T00:31:05.403Z,44.04
2023-04-11T00:36:09.496Z,44.21
2023-04-11T00:41:13.622Z,44.26
2023-04-11T00:46:17.038Z,44.45
2023-04-11T00:51:19.955Z,44.54
2023-04-11T00:56:24.098Z,44.46
2023-04-11T01:01:30.067Z,44.47
2023-04-11T01:06:33.625Z,44.58
2023-04-11T01:11:37.825Z,44.65
2023-04-11T01:16:40.758Z,44.77
2023-04-11T01:21:43.618Z,44.85
2023-04-11T01:26:47.688Z,44.75
2023-04-11T01:31:52.327Z,44.73
2023-04-11T01:36:55.165Z,44.76
2023-04-11T01:41:59.387Z,45.00
2023-04-11T01:47:02.137Z,45.15
2023-04-11T01:52:04.980Z,45.21
2023-04-11T01:57:09.124Z,44.90
2023-04-11T02:02:12.346Z,45.23
2023-04-11T02:07:15.326Z,45.27
2023-04-11T02:12:19.496Z,45.10
2023-04-11T02:17:25.758Z,45.23
2023-04-11T02:22:28.789Z,45.30
2023-04-11T02:27:32.997Z,45.30
2023-04-11T02:32:35.992Z,45.46
2023-04-11T02:37:38.793Z,45.35
2023-04-11T02:42:43.308Z,45.24
2023-04-11T02:47:46.883Z,45.44
2023-04-11T02:52:50.195Z,45.47
2023-04-11T02:57:58.546Z,45.71
2023-04-11T03:03:02.561Z,45.56
2023-04-11T03:08:09.851Z,45.88
2023-04-11T03:13:17.745Z,45.84
2023-04-11T03:18:22.378Z,45.84
2023-04-11T03:23:25.308Z,45.93
2023-04-11T03:28:30.051Z,45.90
2023-04-11T03:33:33.515Z,45.88
2023-04-11T03:38:36.545Z,45.88
2023-04-11T03:43:40.853Z,46.04
2023-04-11T03:48:47.061Z,46.07
2023-04-11T03:53:52.266Z,46.03
2023-04-11T03:59:07.394Z,46.00
2023-04-11T04:04:23.081Z,46.08
2023-04-11T04:09:35.732Z,46.02
2023-04-11T04:14:41.134Z,46.04
2023-04-11T04:19:45.593Z,45.92
2023-04-11T04:24:50.149Z,46.03
2023-04-11T04:30:03.644Z,46.08
2023-04-11T04:35:22.228Z,46.21
2023-04-11T04:40:26.060Z,46.30
2023-04-11T04:45:38.250Z,46.13
2023-04-11T04:50:41.223Z,46.31
2023-04-11T04:55:44.171Z,46.33
2023-04-11T05:00:49.464Z,46.10
2023-04-11T05:05:59.542Z,46.09
2023-04-11T05:11:02.651Z,46.20
2023-04-11T05:16:08.503Z,45.95
2023-04-11T05:21:11.713Z,46.06
2023-04-11T05:26:17.340Z,46.01
2023-04-11T05:31:21.911Z,46.03
2023-04-11T05:36:24.915Z,45.98
2023-04-11T05:41:27.701Z,45.94
2023-04-11T05:46:35.576Z,46.07
2023-04-11T05:51:38.537Z,46.16
2023-04-11T05:56:42.842Z,46.20
2023-04-11T06:01:47.198Z,46.16
2023-04-11T06:06:49.992Z,46.42
2023-04-11T06:11:52.890Z,46.10
2023-04-11T06:16:57.069Z,45.75
2023-04-11T06:22:00.030Z,45.55
2023-04-11T06:27:03.497Z,45.38
2023-04-11T06:32:07.742Z,45.73
2023-04-11T06:37:10.718Z,45.66
2023-04-11T06:42:13.481Z,45.48
2023-04-11T06:47:21.082Z,45.36
2023-04-11T06:52:24.579Z,45.33
2023-04-11T06:57:28.632Z,45.46
2023-04-11T07:02:35.687Z,45.35
2023-04-11T07:07:38.857Z,45.33
2023-04-11T07:12:41.627Z,45.29
2023-04-11T07:17:45.829Z,45.00
2023-04-11T07:27:51.708Z,45.09
2023-04-11T07:32:55.912Z,45.10
2023-04-11T07:37:58.853Z,45.02
2023-04-11T07:43:02.092Z,45.07
2023-04-11T07:48:06.629Z,45.04
2023-04-11T07:53:10.857Z,44.88
2023-04-11T07:58:13.635Z,45.02
2023-04-11T08:03:17.963Z,44.71
2023-04-11T08:08:20.955Z,44.81
2023-04-11T08:13:23.694Z,44.51
2023-04-11T08:18:27.827Z,43.65
2023-04-11T08:23:30.752Z,39.67
2023-04-11T08:28:33.484Z,40.49
2023-04-11T08:33:37.709Z,40.19
2023-04-11T08:38:41.694Z,40.38
2023-04-11T08:43:46.896Z,40.61
2023-04-11T08:48:51.155Z,40.11
2023-04-11T08:54:03.833Z,40.25
2023-04-11T08:59:11.824Z,39.96
2023-04-11T09:04:16.038Z,38.68
2023-04-11T09:09:29.364Z,38.20
2023-04-11T09:14:32.753Z,37.66
2023-04-11T09:19:37.200Z,37.20
2023-04-11T09:24:39.938Z,37.01
2023-04-11T09:29:43.349Z,37.19
2023-04-11T09:34:49.417Z,37.68
2023-04-11T09:39:59.994Z,38.26
2023-04-11T09:45:03.836Z,38.23
2023-04-11T09:50:08.968Z,38.47
2023-04-11T09:55:12.893Z,38.69
2023-04-11T10:00:17.265Z,39.02
2023-04-11T10:05:22.114Z,39.24
2023-04-11T10:10:25.036Z,39.64
2023-04-11T10:15:28.008Z,39.68
2023-04-11T10:20:49.771Z,39.72
2023-04-11T10:25:56.331Z,40.04
2023-04-11T10:31:17.481Z,40.22
2023-04-11T10:36:23.045Z,41.14
2023-04-11T10:41:28.000Z,41.68
2023-04-11T10:46:30.925Z,42.42
2023-04-11T10:51:35.373Z,43.50
2023-04-11T10:56:57.258Z,43.64
2023-04-11T11:02:01.348Z,44.10
2023-04-11T11:07:07.130Z,44.25
2023-04-11T11:12:10.113Z,43.90
2023-04-11T11:17:13.125Z,44.48
2023-04-11T11:22:17.527Z,44.80
2023-04-11T11:27:22.517Z,45.02
2023-04-11T11:32:28.394Z,44.61
2023-04-11T11:37:32.950Z,44.70
2023-04-11T11:42:35.894Z,44.91
2023-04-11T11:47:42.534Z,44.74
2023-04-11T11:52:48.900Z,43.67
2023-04-11T11:57:52.046Z,43.68
2023-04-11T12:02:55.964Z,43.71
2023-04-11T12:08:01.217Z,43.42
2023-04-11T12:13:04.184Z,43.17
2023-04-11T12:18:07.582Z,43.03
2023-04-11T12:23:11.912Z,42.72
2023-04-11T12:28:14.736Z,42.83
2023-04-11T12:33:17.782Z,42.65
2023-04-11T12:38:22.688Z,42.34
2023-04-11T12:43:25.608Z,42.39
2023-04-11T12:48:28.516Z,42.18
2023-04-11T12:53:32.902Z,42.16
2023-04-11T12:58:35.799Z,42.70
2023-04-11T13:03:38.962Z,42.21
2023-04-11T13:08:43.465Z,42.52
2023-04-11T13:13:46.462Z,42.77
2023-04-11T13:18:49.477Z,42.44
2023-04-11T13:23:53.725Z,42.57
2023-04-11T13:28:56.937Z,42.94
2023-04-11T13:34:00.073Z,42.85
2023-04-11T13:39:05.798Z,43.81
2023-04-11T13:44:08.880Z,43.36
2023-04-11T13:49:12.050Z,44.13
2023-04-11T13:54:16.347Z,44.24
2023-04-11T13:59:19.284Z,44.31
2023-04-11T14:04:22.431Z,44.66
2023-04-11T14:09:27.279Z,44.44
2023-04-11T14:14:30.152Z,44.88
2023-04-11T14:19:32.987Z,44.77
2023-04-11T14:24:37.122Z,44.19
2023-04-11T14:29:40.597Z,44.02
2023-04-11T14:34:43.677Z,43.70
2023-04-11T14:39:47.942Z,42.67
2023-04-11T14:44:51.626Z,41.74
2023-04-11T14:49:54.387Z,41.13
2023-04-11T14:54:58.780Z,41.10
2023-04-11T15:00:03.016Z,41.38
2023-04-11T15:05:08.482Z,41.00
2023-04-11T15:10:13.355Z,40.65
2023-04-11T15:15:17.613Z,40.12
2023-04-11T15:20:20.920Z,39.90
2023-04-11T15:25:25.159Z,39.56
2023-04-11T15:30:28.248Z,39.79
2023-04-11T15:35:31.044Z,39.07
2023-04-11T15:40:35.423Z,38.99
2023-04-11T15:45:39.413Z,39.13
2023-04-11T15:50:42.419Z,38.18
2023-04-11T15:55:47.647Z,38.79
2023-04-11T16:00:51.309Z,39.04
2023-04-11T16:05:54.310Z,39.27
2023-04-11T16:10:58.507Z,39.52
2023-04-11T16:16:01.514Z,39.51
2023-04-11T16:21:04.889Z,40.56
2023-04-11T16:26:09.612Z,38.85
2023-04-11T16:31:15.140Z,37.82
2023-04-11T16:36:18.053Z,38.30
2023-04-11T16:41:22.348Z,38.35
2023-04-11T16:46:25.326Z,38.91
2023-04-11T16:51:28.446Z,38.92
2023-04-11T16:56:32.659Z,39.15
2023-04-11T17:01:35.637Z,39.92
2023-04-11T17:06:38.785Z,40.45
2023-04-11T17:11:42.921Z,40.29
2023-04-11T17:16:46.373Z,40.39
2023-04-11T17:21:49.229Z,40.45
2023-04-11T17:26:53.408Z,40.65
2023-04-11T17:31:56.666Z,40.62
2023-04-11T17:36:59.624Z,40.64
2023-04-11T17:42:03.780Z,40.94
2023-04-11T17:47:07.151Z,40.93
2023-04-11T17:52:09.899Z,39.56
2023-04-11T17:57:15.103Z,39.86
2023-04-11T18:02:19.516Z,40.40
2023-04-11T18:07:24.364Z,41.10
2023-04-11T18:12:29.499Z,41.27
2023-04-11T18:17:33.235Z,41.33
2023-04-11T18:22:36.343Z,41.38
2023-04-11T18:27:40.750Z,41.64
2023-04-11T18:32:48.651Z,41.60
2023-04-11T18:37:53.968Z,41.86
2023-04-11T18:42:58.582Z,41.74
2023-04-11T18:48:01.676Z,41.98
2023-04-11T18:53:05.802Z,41.65
2023-04-11T18:58:15.238Z,41.53
2023-04-11T19:03:19.617Z,41.79
2023-04-11T19:08:22.563Z,41.60
2023-04-11T19:13:26.781Z,42.03
2023-04-11T19:18:30.043Z,42.02
2023-04-11T19:23:33.232Z,42.00
2023-04-11T19:28:37.340Z,42.09
2023-04-11T19:33:40.250Z,41.64
2023-04-11T19:38:43.338Z,41.55
2023-04-11T19:43:48.400Z,41.59
2023-04-11T19:48:51.461Z,41.47
2023-04-11T19:53:54.371Z,41.42
2023-04-11T19:58:58.492Z,41.62
2023-04-11T20:04:02.268Z,41.56
2023-04-11T20:09:05.581Z,41.32
2023-04-11T20:14:09.678Z,41.38
2023-04-11T20:19:12.529Z,41.68
2023-04-11T20:24:15.441Z,41.63
2023-04-11T20:29:21.257Z,41.41
2023-04-11T20:34:24.121Z,41.65
2023-04-11T20:39:27.436Z,41.62
2023-04-11T20:44:34.072Z,41.64
2023-04-11T20:49:36.825Z,41.52
2023-04-11T20:54:40.915Z,41.88
2023-04-11T20:59:45.024Z,42.33
2023-04-11T21:04:51.446Z,42.04
2023-04-11T21:09:56.210Z,42.12
2023-04-11T21:15:00.578Z,42.13
2023-04-11T21:20:07.280Z,42.19
2023-04-11T21:25:10.336Z,42.07
2023-04-11T21:30:14.998Z,42.33
2023-04-11T21:35:17.855Z,42.49
2023-04-11T21:40:20.767Z,42.66
2023-04-11T21:45:24.886Z,42.63
2023-04-11T21:50:27.754Z,42.66
2023-04-11T21:55:30.564Z,42.79
2023-04-11T22:00:34.734Z,42.57
2023-04-11T22:05:38.355Z,42.76
2023-04-11T22:10:47.755Z,43.07
2023-04-11T22:15:58.605Z,42.92
2023-04-11T22:21:03.062Z,42.83
2023-04-11T22:26:06.519Z,43.02
2023-04-11T22:31:13.530Z,43.04
2023-04-11T22:36:16.480Z,43.03
2023-04-11T22:41:19.253Z,43.23
2023-04-11T22:46:23.794Z,43.39
2023-04-11T22:51:29.870Z,43.20
2023-04-11T22:56:32.752Z,43.42
2023-04-11T23:01:37.030Z,43.35
2023-04-11T23:06:39.811Z,43.51
2023-04-11T23:11:42.635Z,43.43
2023-04-11T23:16:46.789Z,43.76
2023-04-11T23:21:49.734Z,43.63
2023-04-11T23:26:52.551Z,43.80
2023-04-11T23:31:56.673Z,43.83
2023-04-11T23:36:59.471Z,43.90
2023-04-11T23:42:02.409Z,43.97
2023-04-11T23:47:07.089Z,44.35
2023-04-11T23:52:11.119Z,44.31
2023-04-11T23:57:13.914Z,44.38
